Time;durP1;ratioP1;P1;durP2;ratioP2;P2;SDS_P1;SDS_P2;PMS_P1;PMS_P2;Temp;Humidity;BMP_temperature;BMP_pressure;BME280_temperature;BME280_humidity;BME280_pressure;Samples;Min_cycle;Max_cycle;Signal;HPM_P1;HPM_P2
2023/04/08 00:00:19;;;;;;;5.75;3.40;;;;;;;;;;5067182;28;20063;-73
2023/04/08 00:02:46;;;;;;;10.68;3.75;;;;;;;;;;5059664;28;20135;-73
2023/04/08 00:05:14;;;;;;;6.93;3.80;;;;;;;;;;5067983;28;20054;-73
2023/04/08 00:07:42;;;;;;;7.03;3.83;;;;;;;;;;5065964;28;20067;-73
2023/04/08 00:10:10;;;;;;;5.32;3.45;;;;;;;;;;5066896;28;20448;-73
2023/04/08 00:12:37;;;;;;;5.88;3.90;;;;;;;;;;5061617;28;20056;-73
2023/04/08 00:15:05;;;;;;;8.25;4.20;;;;;;;;;;5083660;28;20051;-73
2023/04/08 00:17:33;;;;;;;5.70;3.78;;;;;;;;;;5065703;28;20059;-73
2023/04/08 00:20:00;;;;;;;8.13;3.90;;;;;;;;;;5066178;28;20410;-73
2023/04/08 00:22:28;;;;;;;8.52;4.07;;;;;;;;;;5065906;28;20491;-73
2023/04/08 00:24:55;;;;;;;7.38;4.53;;;;;;;;;;5063131;28;20492;-73
2023/04/08 00:27:24;;;;;;;9.40;4.20;;;;;;;;;;5069141;28;20052;-73
2023/04/08 00:29:51;;;;;;;7.55;4.18;;;;;;;;;;5066868;28;20087;-73
2023/04/08 00:32:18;;;;;;;7.28;3.90;;;;;;;;;;5063953;28;20056;-73
2023/04/08 00:34:47;;;;;;;7.47;4.32;;;;;;;;;;5068808;28;20074;-73
2023/04/08 00:37:14;;;;;;;9.27;4.20;;;;;;;;;;5069553;28;20044;-73
2023/04/08 00:39:41;;;;;;;7.68;4.90;;;;;;;;;;5073097;28;20060;-73
2023/04/08 00:42:08;;;;;;;7.85;5.38;;;;;;;;;;5072686;28;20044;-73
2023/04/08 00:44:36;;;;;;;9.02;5.20;;;;;;;;;;5065197;28;20153;-73
2023/04/08 00:47:04;;;;;;;9.35;5.20;;;;;;;;;;5069863;28;20044;-73
2023/04/08 00:49:31;;;;;;;9.20;5.32;;;;;;;;;;5069666;28;20114;-73
2023/04/08 00:52:00;;;;;;;11.98;5.95;;;;;;;;;;5084491;28;20043;-73
2023/04/08 00:54:28;;;;;;;9.63;5.60;;;;;;;;;;5084019;28;20487;-73
2023/04/08 00:56:55;;;;;;;9.60;5.95;;;;;;;;;;5072039;28;20052;-73
2023/04/08 00:59:23;;;;;;;9.73;5.88;;;;;;;;;;5071694;28;20087;-73
2023/04/08 01:01:55;;;;;;;9.60;6.15;;;;;;;;;;5071954;28;20043;-73
2023/04/08 01:04:29;;;;;;;10.27;5.97;;;;;;;;;;5071260;28;20052;-73
2023/04/08 01:06:56;;;;;;;;;;;;;;;;;;5087910;28;20056;-73
2023/04/08 01:09:26;;;;;;;11.82;6.40;;;;;;;;;;5060572;28;19920;-73
2023/04/08 01:11:55;;;;;;;9.77;6.50;;;;;;;;;;5067644;28;20064;-73
2023/04/08 01:14:26;;;;;;;11.35;6.88;;;;;;;;;;5071710;28;20048;-73
2023/04/08 01:16:54;;;;;;;11.02;6.88;;;;;;;;;;5058355;28;20127;-73
2023/04/08 01:19:27;;;;;;;12.48;6.95;;;;;;;;;;5068541;28;20059;-73
2023/04/08 01:21:55;;;;;;;13.52;7.15;;;;;;;;;;5089834;28;20040;-73
2023/04/08 01:24:28;;;;;;;12.07;7.47;;;;;;;;;;5063017;28;20067;-73
2023/04/08 01:26:58;;;;;;;12.68;7.22;;;;;;;;;;5064759;28;20509;-73
2023/04/08 01:29:27;;;;;;;14.98;7.32;;;;;;;;;;5070842;28;20048;-73
2023/04/08 01:31:55;;;;;;;17.27;7.70;;;;;;;;;;5069595;28;20047;-73
2023/04/08 01:34:22;;;;;;;12.82;7.38;;;;;;;;;;5070372;28;20576;-73
2023/04/08 01:36:50;;;;;;;11.57;7.65;;;;;;;;;;5070743;28;20067;-73
2023/04/08 01:39:18;;;;;;;13.73;8.05;;;;;;;;;;5085448;28;20055;-73
2023/04/08 01:41:46;;;;;;;13.90;7.97;;;;;;;;;;5071957;28;20040;-73
2023/04/08 01:44:15;;;;;;;16.55;8.82;;;;;;;;;;5068547;28;20056;-73
2023/04/08 01:46:43;;;;;;;15.68;8.80;;;;;;;;;;5071737;28;20131;-73
2023/04/08 01:49:10;;;;;;;14.50;8.43;;;;;;;;;;5083215;28;20048;-73
2023/04/08 01:51:38;;;;;;;15.20;9.05;;;;;;;;;;5072884;28;20051;-73
2023/04/08 01:54:06;;;;;;;17.35;9.00;;;;;;;;;;5069276;28;20047;-73
2023/04/08 01:56:37;;;;;;;15.60;9.07;;;;;;;;;;5071830;28;20067;-73
2023/04/08 01:59:06;;;;;;;14.40;8.57;;;;;;;;;;5069548;28;20580;-73
2023/04/08 02:01:35;;;;;;;18.73;9.15;;;;;;;;;;5071301;28;20529;-73
2023/04/08 02:04:04;;;;;;;17.00;9.60;;;;;;;;;;5070503;28;20466;-73
2023/04/08 02:06:31;;;;;;;14.50;8.73;;;;;;;;;;5067373;28;20051;-73
2023/04/08 02:09:00;;;;;;;14.13;9.18;;;;;;;;;;5069194;28;20056;-73
2023/04/08 02:11:28;;;;;;;19.15;9.25;;;;;;;;;;5087951;28;20384;-73
2023/04/08 02:13:55;;;;;;;15.95;10.27;;;;;;;;;;5068389;28;20048;-73
2023/04/08 02:16:24;;;;;;;16.40;9.60;;;;;;;;;;5064510;28;20044;-73
2023/04/08 02:18:56;;;;;;;12.75;8.77;;;;;;;;;;5086533;28;20055;-73
2023/04/08 02:21:26;;;;;;;16.15;10.23;;;;;;;;;;5088834;28;20044;-73
2023/04/08 02:23:54;;;;;;;16.15;10.63;;;;;;;;;;5068359;28;20058;-73
2023/04/08 02:26:23;;;;;;;17.00;10.15;;;;;;;;;;5070242;28;20058;-73
2023/04/08 02:28:50;;;;;;;16.00;10.27;;;;;;;;;;5069952;28;20054;-73
2023/04/08 02:31:18;;;;;;;15.00;9.70;;;;;;;;;;5071686;28;20070;-73
2023/04/08 02:33:46;;;;;;;15.30;10.13;;;;;;;;;;5070626;28;20048;-73
2023/04/08 02:36:15;;;;;;;15.52;10.98;;;;;;;;;;5066283;28;20438;-73
2023/04/08 02:38:42;;;;;;;17.00;9.90;;;;;;;;;;5066781;28;20055;-73
2023/04/08 02:41:09;;;;;;;15.63;11.05;;;;;;;;;;5067030;28;20056;-73
2023/04/08 02:43:36;;;;;;;19.73;11.00;;;;;;;;;;5082610;28;20059;-73
2023/04/08 02:46:04;;;;;;;16.73;11.00;;;;;;;;;;5085173;28;20052;-73
2023/04/08 02:48:31;;;;;;;19.35;12.25;;;;;;;;;;5085569;28;20052;-73
2023/04/08 02:50:59;;;;;;;19.02;11.50;;;;;;;;;;5070023;28;20052;-73
2023/04/08 02:53:27;;;;;;;18.23;11.63;;;;;;;;;;5068650;28;20048;-73
2023/04/08 02:55:55;;;;;;;20.33;12.18;;;;;;;;;;5067482;28;20047;-73
2023/04/08 02:58:22;;;;;;;18.50;10.93;;;;;;;;;;5068953;28;20474;-73
2023/04/08 03:00:49;;;;;;;17.02;11.68;;;;;;;;;;5071168;28;20043;-73
2023/04/08 03:03:17;;;;;;;19.73;12.52;;;;;;;;;;5066590;28;20055;-73
2023/04/08 03:05:44;;;;;;;18.25;11.20;;;;;;;;;;5082198;28;20484;-73
2023/04/08 03:08:11;;;;;;;20.50;13.32;;;;;;;;;;5083277;28;20055;-73
2023/04/08 03:10:40;;;;;;;20.73;12.60;;;;;;;;;;5069865;28;20044;-73
2023/04/08 03:13:07;;;;;;;18.10;12.10;;;;;;;;;;5067806;28;20047;-73
2023/04/08 03:15:34;;;;;;;19.55;13.48;;;;;;;;;;5058070;28;20062;-73
2023/04/08 03:18:02;;;;;;;21.90;13.95;;;;;;;;;;5059727;28;20499;-73
2023/04/08 03:20:29;;;;;;;25.98;14.80;;;;;;;;;;5069574;28;20162;-73
2023/04/08 03:22:56;;;;;;;19.75;13.05;;;;;;;;;;5069598;28;20064;-73
2023/04/08 03:25:23;;;;;;;21.20;14.13;;;;;;;;;;5062980;28;20063;-73
2023/04/08 03:27:52;;;;;;;25.17;14.20;;;;;;;;;;5069331;28;20048;-73
2023/04/08 03:30:19;;;;;;;25.58;15.43;;;;;;;;;;5069930;28;20051;-73
2023/04/08 03:32:47;;;;;;;23.42;14.65;;;;;;;;;;5069687;28;20969;-73
2023/04/08 03:35:14;;;;;;;24.75;14.98;;;;;;;;;;5067815;28;20044;-73
2023/04/08 03:37:41;;;;;;;24.85;16.45;;;;;;;;;;5088355;28;20063;-73
2023/04/08 03:40:09;;;;;;;24.67;16.08;;;;;;;;;;5064787;28;20044;-73
2023/04/08 03:42:37;;;;;;;28.98;15.95;;;;;;;;;;5062603;28;20480;-73
2023/04/08 03:45:06;;;;;;;25.48;16.67;;;;;;;;;;5082694;28;20486;-73
2023/04/08 03:47:34;;;;;;;27.40;15.93;;;;;;;;;;5068256;28;20484;-73
2023/04/08 03:50:02;;;;;;;26.77;15.75;;;;;;;;;;5066900;28;20070;-73
2023/04/08 03:52:29;;;;;;;27.27;16.90;;;;;;;;;;5069426;28;20084;-73
2023/04/08 03:54:56;;;;;;;28.15;17.90;;;;;;;;;;5066154;28;20139;-73
2023/04/08 03:57:24;;;;;;;28.92;16.50;;;;;;;;;;5064863;28;20460;-73
2023/04/08 03:59:51;;;;;;;25.50;16.98;;;;;;;;;;5069866;28;20052;-73
2023/04/08 04:02:20;;;;;;;27.77;17.30;;;;;;;;;;5067973;28;20066;-73
2023/04/08 04:04:47;;;;;;;27.30;17.90;;;;;;;;;;5064387;28;20052;-73
2023/04/08 04:07:14;;;;;;;29.63;17.80;;;;;;;;;;5070050;28;20047;-73
2023/04/08 04:09:41;;;;;;;30.77;17.98;;;;;;;;;;5068771;28;20048;-73
2023/04/08 04:12:08;;;;;;;26.50;17.85;;;;;;;;;;5063395;28;20048;-73
2023/04/08 04:14:36;;;;;;;28.95;17.85;;;;;;;;;;5067223;28;20048;-73
2023/04/08 04:17:03;;;;;;;28.52;18.13;;;;;;;;;;5069674;28;20048;-73
2023/04/08 04:19:32;;;;;;;27.83;17.88;;;;;;;;;;5069301;28;20431;-73
2023/04/08 04:21:59;;;;;;;25.00;16.98;;;;;;;;;;5067876;28;20048;-73
2023/04/08 04:24:26;;;;;;;29.98;18.08;;;;;;;;;;5067137;28;20064;-73
2023/04/08 04:26:54;;;;;;;29.83;18.33;;;;;;;;;;5068238;28;20059;-73
2023/04/08 04:29:21;;;;;;;32.75;18.77;;;;;;;;;;5067762;28;20044;-73
2023/04/08 04:31:48;;;;;;;26.80;18.33;;;;;;;;;;5066755;28;20052;-73
2023/04/08 04:34:16;;;;;;;25.40;17.45;;;;;;;;;;5064112;28;20063;-73
2023/04/08 04:36:45;;;;;;;29.42;17.33;;;;;;;;;;5064211;28;20128;-73
2023/04/08 04:39:12;;;;;;;29.27;18.80;;;;;;;;;;5064676;28;20137;-73
2023/04/08 04:41:40;;;;;;;29.13;18.48;;;;;;;;;;5081222;28;20407;-73
2023/04/08 04:44:07;;;;;;;28.13;17.90;;;;;;;;;;5064661;28;20063;-70
2023/04/08 04:46:34;;;;;;;31.42;19.45;;;;;;;;;;5085249;28;20140;-70
2023/04/08 04:49:02;;;;;;;27.73;17.98;;;;;;;;;;5083798;28;20097;-70
2023/04/08 04:51:32;;;;;;;23.40;16.85;;;;;;;;;;5062363;28;20396;-70
2023/04/08 04:54:06;;;;;;;26.52;16.95;;;;;;;;;;5078979;28;20085;-70
2023/04/08 04:56:33;;;;;;;28.48;18.15;;;;;;;;;;5064606;28;20716;-70
2023/04/08 04:59:00;;;;;;;29.00;16.70;;;;;;;;;;5064557;28;20526;-70
2023/04/08 05:01:28;;;;;;;31.20;18.45;;;;;;;;;;5064465;28;20063;-70
2023/04/08 05:03:56;;;;;;;31.00;18.85;;;;;;;;;;5084040;28;20075;-71
2023/04/08 05:06:25;;;;;;;29.42;17.25;;;;;;;;;;5065194;28;20048;-70
2023/04/08 05:08:52;;;;;;;34.22;18.38;;;;;;;;;;5064143;28;20102;-70
2023/04/08 05:11:21;;;;;;;27.38;17.58;;;;;;;;;;5063945;28;20058;-70
2023/04/08 05:13:48;;;;;;;28.95;18.42;;;;;;;;;;5085384;28;20055;-70
2023/04/08 05:16:16;;;;;;;28.98;18.30;;;;;;;;;;5083999;28;20344;-70
2023/04/08 05:18:44;;;;;;;27.50;18.02;;;;;;;;;;5067960;28;20055;-70
2023/04/08 05:21:11;;;;;;;31.13;20.90;;;;;;;;;;5083847;28;20052;-71
2023/04/08 05:23:38;;;;;;;31.30;19.98;;;;;;;;;;5090820;28;20044;-71
2023/04/08 05:26:07;;;;;;;31.35;20.02;;;;;;;;;;5069869;28;20607;-70
2023/04/08 05:28:36;;;;;;;37.28;21.90;;;;;;;;;;5073293;28;20044;-71
2023/04/08 05:31:03;;;;;;;33.30;19.38;;;;;;;;;;5071282;28;20048;-70
2023/04/08 05:33:30;;;;;;;33.70;19.77;;;;;;;;;;5088406;28;20078;-70
2023/04/08 05:35:58;;;;;;;36.60;22.15;;;;;;;;;;5070720;28;20509;-70
2023/04/08 05:38:25;;;;;;;43.20;24.20;;;;;;;;;;5060550;28;20132;-70
2023/04/08 05:40:52;;;;;;;37.03;21.70;;;;;;;;;;5065010;28;20052;-70
2023/04/08 05:43:19;;;;;;;41.40;22.02;;;;;;;;;;5086098;28;20060;-70
2023/04/08 05:45:48;;;;;;;34.15;20.58;;;;;;;;;;5087867;28;20567;-70
2023/04/08 05:48:15;;;;;;;35.63;21.25;;;;;;;;;;5070705;28;20052;-70
2023/04/08 05:50:43;;;;;;;38.53;21.55;;;;;;;;;;5089730;28;20056;-70
2023/04/08 05:53:10;;;;;;;32.55;20.95;;;;;;;;;;5065894;28;20407;-70
2023/04/08 05:55:37;;;;;;;37.28;22.08;;;;;;;;;;5084007;28;20055;-70
2023/04/08 05:58:05;;;;;;;33.88;22.40;;;;;;;;;;5085991;28;20443;-70
2023/04/08 06:00:32;;;;;;;32.15;19.98;;;;;;;;;;5085913;28;20390;-70
2023/04/08 06:03:01;;;;;;;37.65;22.25;;;;;;;;;;5088676;28;20097;-70
2023/04/08 06:05:28;;;;;;;33.75;20.52;;;;;;;;;;5065731;28;20060;-70
2023/04/08 06:07:55;;;;;;;34.50;22.42;;;;;;;;;;5068809;28;20052;-70
2023/04/08 06:10:22;;;;;;;32.30;20.55;;;;;;;;;;5084948;28;20169;-70
2023/04/08 06:12:50;;;;;;;35.80;22.85;;;;;;;;;;5068030;28;20048;-70
2023/04/08 06:15:17;;;;;;;35.72;21.58;;;;;;;;;;5088812;28;20043;-70
2023/04/08 06:17:44;;;;;;;37.42;21.60;;;;;;;;;;5089617;28;20048;-70
2023/04/08 06:20:13;;;;;;;32.45;20.67;;;;;;;;;;5069757;28;20554;-70
2023/04/08 06:22:40;;;;;;;33.88;21.73;;;;;;;;;;5070491;28;20467;-70
2023/04/08 06:25:08;;;;;;;32.20;21.55;;;;;;;;;;5086804;28;20538;-70
2023/04/08 06:27:35;;;;;;;30.75;20.15;;;;;;;;;;5088360;28;20051;-70
2023/04/08 06:30:02;;;;;;;33.78;21.42;;;;;;;;;;5060882;28;20052;-70
2023/04/08 06:32:29;;;;;;;33.17;20.27;;;;;;;;;;5084068;28;20040;-70
2023/04/08 06:34:57;;;;;;;28.95;19.50;;;;;;;;;;5069213;28;20395;-70
2023/04/08 06:37:25;;;;;;;31.35;20.95;;;;;;;;;;5068046;28;20056;-70
2023/04/08 06:39:52;;;;;;;32.47;20.90;;;;;;;;;;5087128;28;20044;-70
2023/04/08 06:42:20;;;;;;;33.55;21.08;;;;;;;;;;5083582;28;20052;-70
2023/04/08 06:44:47;;;;;;;35.92;22.30;;;;;;;;;;5077302;28;20059;-70
2023/04/08 06:47:15;;;;;;;36.78;21.80;;;;;;;;;;5083070;28;20055;-70
2023/04/08 06:49:43;;;;;;;35.78;22.33;;;;;;;;;;5067724;28;20059;-70
2023/04/08 06:52:10;;;;;;;33.50;21.50;;;;;;;;;;5064254;28;20645;-71
2023/04/08 06:54:39;;;;;;;33.13;22.83;;;;;;;;;;5061074;28;20048;-70
2023/04/08 06:57:06;;;;;;;37.22;21.92;;;;;;;;;;5064135;28;20058;-70
2023/04/08 06:59:33;;;;;;;34.38;22.35;;;;;;;;;;5087188;28;20050;-70
2023/04/08 07:02:00;;;;;;;34.65;21.77;;;;;;;;;;5085472;28;20127;-70
2023/04/08 07:04:28;;;;;;;33.80;22.85;;;;;;;;;;5067173;28;20052;-71
2023/04/08 07:06:55;;;;;;;30.40;20.75;;;;;;;;;;5064776;28;20063;-71
2023/04/08 07:09:22;;;;;;;31.80;22.63;;;;;;;;;;5061375;28;20052;-71
2023/04/08 07:11:51;;;;;;;28.35;20.23;;;;;;;;;;5069566;28;20070;-70
2023/04/08 07:14:19;;;;;;;34.55;21.75;;;;;;;;;;5087673;28;20048;-70
2023/04/08 07:16:46;;;;;;;34.72;20.77;;;;;;;;;;5086492;28;20430;-70
2023/04/08 07:19:13;;;;;;;35.28;21.77;;;;;;;;;;5089306;28;20064;-71
2023/04/08 07:21:41;;;;;;;31.23;21.38;;;;;;;;;;5064795;28;20056;-70
2023/04/08 07:24:08;;;;;;;34.55;22.30;;;;;;;;;;5066212;28;20048;-71
2023/04/08 07:26:35;;;;;;;33.60;22.00;;;;;;;;;;5087236;28;20078;-70
2023/04/08 07:29:04;;;;;;;30.77;21.15;;;;;;;;;;5087108;28;20044;-70
2023/04/08 07:31:31;;;;;;;31.30;20.25;;;;;;;;;;5060310;28;20075;-70
2023/04/08 07:33:59;;;;;;;31.13;20.98;;;;;;;;;;5063314;28;20044;-71
2023/04/08 07:36:27;;;;;;;29.88;18.88;;;;;;;;;;5060638;28;20048;-70
2023/04/08 07:38:54;;;;;;;29.65;20.33;;;;;;;;;;5064013;28;20047;-70
2023/04/08 07:41:21;;;;;;;29.27;19.23;;;;;;;;;;5062235;28;20055;-71
2023/04/08 07:43:49;;;;;;;27.00;19.30;;;;;;;;;;5084427;28;20052;-71
2023/04/08 07:46:17;;;;;;;28.08;18.48;;;;;;;;;;5064400;28;20486;-71
2023/04/08 07:48:45;;;;;;;21.40;16.20;;;;;;;;;;5082121;28;20059;-71
2023/04/08 07:51:12;;;;;;;22.85;15.48;;;;;;;;;;5084391;28;20052;-71
2023/04/08 07:53:40;;;;;;;21.60;15.00;;;;;;;;;;5081324;28;20472;-71
2023/04/08 07:56:12;;;;;;;21.38;15.18;;;;;;;;;;5064070;28;20534;-71
2023/04/08 07:58:40;;;;;;;19.35;13.18;;;;;;;;;;5086172;28;20812;-71
2023/04/08 08:01:15;;;;;;;20.75;13.75;;;;;;;;;;5086191;28;20044;-71
2023/04/08 08:03:44;;;;;;;19.70;13.73;;;;;;;;;;5063141;28;20056;-71
2023/04/08 08:06:11;;;;;;;20.80;13.48;;;;;;;;;;5061829;28;20061;-71
2023/04/08 08:08:39;;;;;;;19.38;13.65;;;;;;;;;;5064790;28;20106;-71
2023/04/08 08:11:06;;;;;;;17.13;11.80;;;;;;;;;;5065416;28;20053;-71
2023/04/08 08:13:34;;;;;;;17.55;12.15;;;;;;;;;;5066988;28;20040;-71
2023/04/08 08:16:01;;;;;;;15.57;9.70;;;;;;;;;;5063374;28;20070;-71
2023/04/08 08:18:28;;;;;;;16.13;10.50;;;;;;;;;;5067836;28;20040;-71
2023/04/08 08:20:57;;;;;;;13.43;9.18;;;;;;;;;;5079755;28;20040;-71
2023/04/08 08:23:24;;;;;;;14.88;10.13;;;;;;;;;;5064251;28;20059;-71
2023/04/08 08:25:59;;;;;;;16.33;10.50;;;;;;;;;;5063053;28;20126;-71
2023/04/08 08:28:26;;;;;;;14.32;10.35;;;;;;;;;;5056903;28;20064;-71
2023/04/08 08:30:54;;;;;;;14.30;10.10;;;;;;;;;;5067745;28;20062;-71
2023/04/08 08:33:21;;;;;;;17.17;10.07;;;;;;;;;;5064281;28;20055;-71
2023/04/08 08:35:48;;;;;;;15.10;9.63;;;;;;;;;;5068998;28;20056;-71
2023/04/08 08:38:17;;;;;;;14.32;9.35;;;;;;;;;;5065275;28;20440;-71
2023/04/08 08:40:45;;;;;;;12.70;8.23;;;;;;;;;;5062148;28;20064;-71
2023/04/08 08:43:12;;;;;;;13.05;8.85;;;;;;;;;;5086448;28;20052;-71
2023/04/08 08:45:40;;;;;;;12.68;8.50;;;;;;;;;;5065037;28;20076;-71
2023/04/08 08:48:08;;;;;;;11.23;8.63;;;;;;;;;;5068473;28;20080;-71
2023/04/08 08:50:36;;;;;;;12.43;8.85;;;;;;;;;;5085566;28;20049;-71
2023/04/08 08:53:03;;;;;;;12.45;7.93;;;;;;;;;;5079891;28;20048;-71
2023/04/08 08:55:33;;;;;;;13.23;8.15;;;;;;;;;;5083277;28;20063;-71
2023/04/08 08:58:00;;;;;;;14.32;8.48;;;;;;;;;;5068844;28;20400;-71
2023/04/08 09:00:35;;;;;;;11.40;7.68;;;;;;;;;;5074291;28;20096;-71
2023/04/08 09:03:16;;;;;;;18.77;9.13;;;;;;;;;;5069421;28;20052;-72
2023/04/08 09:05:50;;;;;;;9.82;7.30;;;;;;;;;;5068864;28;20051;-71
2023/04/08 09:08:27;;;;;;;10.85;7.57;;;;;;;;;;5089693;28;20483;-72
2023/04/08 09:10:57;;;;;;;10.38;7.68;;;;;;;;;;5067684;28;20064;-71
2023/04/08 09:13:25;;;;;;;12.18;8.23;;;;;;;;;;5072288;28;20044;-72
2023/04/08 09:16:03;;;;;;;13.68;8.35;;;;;;;;;;5067915;28;20445;-71
2023/04/08 09:18:31;;;;;;;12.77;8.48;;;;;;;;;;5067950;28;20053;-71
2023/04/08 09:21:00;;;;;;;10.70;7.72;;;;;;;;;;5071941;28;20509;-72
2023/04/08 09:23:38;;;;;;;11.65;8.93;;;;;;;;;;5071386;28;20137;-72
2023/04/08 09:26:09;;;;;;;12.10;8.32;;;;;;;;;;5063284;28;20415;-74
2023/04/08 09:28:37;;;;;;;13.07;8.48;;;;;;;;;;5060881;28;20056;-74
2023/04/08 09:31:18;;;;;;;12.73;9.23;;;;;;;;;;5064992;28;20132;-75
2023/04/08 09:33:46;;;;;;;13.52;8.82;;;;;;;;;;5070769;28;20542;-75
2023/04/08 09:36:13;;;;;;;13.20;8.52;;;;;;;;;;5069384;28;20078;-74
2023/04/08 09:38:40;;;;;;;12.63;9.15;;;;;;;;;;5063413;28;20086;-75
2023/04/08 09:41:09;;;;;;;12.48;8.85;;;;;;;;;;5063013;28;20423;-74
2023/04/08 09:43:37;;;;;;;14.48;9.50;;;;;;;;;;5061298;28;20320;-74
2023/04/08 09:46:08;;;;;;;15.13;9.80;;;;;;;;;;5060556;28;20134;-75
2023/04/08 09:48:37;;;;;;;14.43;9.98;;;;;;;;;;5082111;28;20048;-75
2023/04/08 09:51:05;;;;;;;14.15;9.85;;;;;;;;;;5063830;28;20052;-75
2023/04/08 09:53:35;;;;;;;13.68;9.55;;;;;;;;;;5066602;28;20051;-74
2023/04/08 09:56:03;;;;;;;11.80;8.93;;;;;;;;;;5067889;28;20055;-75
2023/04/08 09:58:34;;;;;;;13.27;9.57;;;;;;;;;;5067191;28;20051;-74
2023/04/08 10:01:02;;;;;;;14.93;10.27;;;;;;;;;;5062966;28;20052;-75
2023/04/08 10:03:31;;;;;;;15.93;9.88;;;;;;;;;;5061972;28;20563;-75
2023/04/08 10:05:59;;;;;;;15.07;9.57;;;;;;;;;;5058689;28;20063;-74
2023/04/08 10:08:27;;;;;;;16.95;9.38;;;;;;;;;;5086542;28;20052;-75
2023/04/08 10:10:56;;;;;;;14.75;9.68;;;;;;;;;;5071351;28;20048;-74
2023/04/08 10:13:23;;;;;;;12.80;9.02;;;;;;;;;;5066555;28;20067;-75
2023/04/08 10:16:12;;;;;;;15.45;9.50;;;;;;;;;;5067062;28;20043;-74
2023/04/08 10:18:39;;;;;;;12.77;8.85;;;;;;;;;;5058738;28;20085;-74
2023/04/08 10:21:27;;;;;;;14.00;9.60;;;;;;;;;;5068963;28;20135;-74
2023/04/08 10:23:57;;;;;;;11.52;8.88;;;;;;;;;;5068877;28;20040;-75
2023/04/08 10:26:32;;;;;;;12.52;9.27;;;;;;;;;;5070317;28;20506;-74
2023/04/08 10:29:23;;;;;;;17.58;11.15;;;;;;;;;;5068973;28;20064;-74
2023/04/08 10:31:52;;;;;;;15.80;10.45;;;;;;;;;;5054742;28;20048;-75
2023/04/08 10:34:20;;;;;;;15.88;11.05;;;;;;;;;;5066005;28;20047;-74
2023/04/08 10:36:47;;;;;;;15.40;10.35;;;;;;;;;;5069965;28;20407;-75
2023/04/08 10:39:15;;;;;;;14.95;10.48;;;;;;;;;;5087198;28;20060;-75
2023/04/08 10:41:42;;;;;;;13.93;10.40;;;;;;;;;;5068744;28;20055;-75
2023/04/08 10:44:16;;;;;;;14.25;10.45;;;;;;;;;;5066786;28;20047;-74
2023/04/08 10:46:43;;;;;;;16.40;10.70;;;;;;;;;;5064302;28;20049;-74
2023/04/08 10:49:12;;;;;;;16.25;10.38;;;;;;;;;;5066632;28;20132;-75
2023/04/08 10:51:40;;;;;;;13.82;10.60;;;;;;;;;;5071297;28;20091;-74
2023/04/08 10:54:08;;;;;;;13.07;9.80;;;;;;;;;;5070000;28;20083;-75
2023/04/08 10:56:36;;;;;;;16.05;9.88;;;;;;;;;;5084429;28;20051;-74
2023/04/08 10:59:03;;;;;;;13.15;8.95;;;;;;;;;;5070046;28;20063;-74
2023/04/08 11:01:39;;;;;;;15.40;9.60;;;;;;;;;;5064696;28;20044;-74
2023/04/08 11:04:08;;;;;;;12.18;8.57;;;;;;;;;;5064300;28;20097;-74
2023/04/08 11:06:38;;;;;;;14.93;9.13;;;;;;;;;;5057887;28;20044;-75
2023/04/08 11:09:06;;;;;;;12.65;8.50;;;;;;;;;;5070232;28;20490;-75
2023/04/08 11:11:33;;;;;;;12.95;9.07;;;;;;;;;;5068398;28;20487;-74
2023/04/08 11:14:00;;;;;;;14.13;8.68;;;;;;;;;;5081174;28;20048;-74
2023/04/08 11:16:29;;;;;;;16.05;8.82;;;;;;;;;;5061159;28;20064;-74
2023/04/08 11:18:56;;;;;;;13.73;8.88;;;;;;;;;;5060430;28;20063;-74
2023/04/08 11:21:27;;;;;;;14.02;8.95;;;;;;;;;;5065237;28;20424;-74
2023/04/08 11:23:56;;;;;;;13.65;8.88;;;;;;;;;;5069937;28;20134;-74
2023/04/08 11:26:24;;;;;;;13.60;9.35;;;;;;;;;;5065649;28;20044;-74
2023/04/08 11:28:51;;;;;;;14.50;9.13;;;;;;;;;;5057294;28;20052;-75
2023/04/08 11:31:19;;;;;;;15.05;9.40;;;;;;;;;;5065248;28;20130;-74
2023/04/08 11:33:47;;;;;;;14.18;9.23;;;;;;;;;;5065769;28;20162;-74
2023/04/08 11:36:15;;;;;;;17.80;9.57;;;;;;;;;;5063803;28;20048;-74
2023/04/08 11:38:42;;;;;;;16.20;10.25;;;;;;;;;;5063606;28;20535;-74
2023/04/08 11:41:11;;;;;;;18.08;10.15;;;;;;;;;;5064438;28;20048;-74
2023/04/08 11:43:39;;;;;;;16.38;10.02;;;;;;;;;;5067078;28;20105;-74
2023/04/08 11:46:10;;;;;;;16.67;10.63;;;;;;;;;;5066171;28;20040;-74
2023/04/08 11:48:38;;;;;;;17.23;9.93;;;;;;;;;;5066305;28;20083;-74
2023/04/08 11:51:07;;;;;;;14.75;9.63;;;;;;;;;;5067730;28;20056;-75
2023/04/08 11:53:36;;;;;;;16.15;10.68;;;;;;;;;;5069070;28;20044;-74
2023/04/08 11:56:18;;;;;;;21.05;11.05;;;;;;;;;;5060847;28;20143;-75
2023/04/08 11:58:45;;;;;;;16.13;9.80;;;;;;;;;;5059409;28;20091;-74
2023/04/08 12:01:13;;;;;;;19.20;10.95;;;;;;;;;;5057517;28;20125;-75
2023/04/08 12:03:40;;;;;;;24.33;11.63;;;;;;;;;;5069364;28;20058;-74
2023/04/08 12:06:08;;;;;;;20.30;12.18;;;;;;;;;;5066706;28;20127;-74
2023/04/08 12:08:35;;;;;;;20.92;12.15;;;;;;;;;;5060050;28;20135;-74
2023/04/08 12:11:03;;;;;;;26.83;13.20;;;;;;;;;;5063200;28;20047;-74
2023/04/08 12:13:31;;;;;;;24.92;13.20;;;;;;;;;;5065912;28;20127;-74
2023/04/08 12:15:58;;;;;;;25.67;14.00;;;;;;;;;;5084457;28;20406;-75
2023/04/08 12:18:26;;;;;;;27.00;14.60;;;;;;;;;;5066020;28;20078;-74
2023/04/08 12:20:53;;;;;;;25.05;14.82;;;;;;;;;;5067469;28;20048;-74
2023/04/08 12:23:21;;;;;;;30.75;15.82;;;;;;;;;;5068078;28;20523;-74
2023/04/08 12:25:48;;;;;;;29.38;16.60;;;;;;;;;;5065016;28;20105;-74
2023/04/08 12:28:15;;;;;;;27.40;15.50;;;;;;;;;;5058288;28;20057;-74
2023/04/08 12:30:45;;;;;;;25.63;15.45;;;;;;;;;;5063740;28;20052;-74
2023/04/08 12:33:12;;;;;;;32.58;15.45;;;;;;;;;;5067290;28;20070;-74
2023/04/08 12:35:40;;;;;;;30.95;16.23;;;;;;;;;;5067931;28;20048;-74
2023/04/08 12:38:07;;;;;;;25.38;14.32;;;;;;;;;;5059443;28;20052;-75
2023/04/08 12:40:34;;;;;;;33.80;16.00;;;;;;;;;;5066612;28;20044;-74
2023/04/08 12:43:01;;;;;;;26.20;16.10;;;;;;;;;;5080366;28;20405;-74
2023/04/08 12:45:29;;;;;;;23.02;14.60;;;;;;;;;;5065037;28;20051;-74
2023/04/08 12:47:57;;;;;;;26.40;15.40;;;;;;;;;;5066953;28;20060;-74
2023/04/08 12:50:25;;;;;;;26.65;15.25;;;;;;;;;;5066297;28;20062;-74
2023/04/08 12:52:52;;;;;;;27.42;15.52;;;;;;;;;;5061812;28;20048;-75
2023/04/08 12:55:23;;;;;;;24.48;14.52;;;;;;;;;;5066238;28;20067;-74
2023/04/08 12:57:50;;;;;;;22.90;14.25;;;;;;;;;;5057759;28;20059;-74
2023/04/08 13:00:18;;;;;;;24.27;14.55;;;;;;;;;;5060819;28;20419;-74
2023/04/08 13:02:45;;;;;;;26.13;14.48;;;;;;;;;;5066221;28;20058;-74
2023/04/08 13:05:14;;;;;;;24.70;14.80;;;;;;;;;;5063028;28;20076;-74
2023/04/08 13:07:41;;;;;;;23.67;14.27;;;;;;;;;;5066189;28;20569;-74
2023/04/08 13:10:09;;;;;;;28.85;15.15;;;;;;;;;;5060979;28;20085;-74
2023/04/08 13:12:38;;;;;;;22.80;13.23;;;;;;;;;;5086247;28;20047;-74
2023/04/08 13:15:06;;;;;;;19.80;13.45;;;;;;;;;;5067856;28;20421;-74
2023/04/08 13:17:34;;;;;;;29.23;13.65;;;;;;;;;;5068564;28;20407;-74
2023/04/08 13:20:02;;;;;;;23.27;14.25;;;;;;;;;;5064153;28;20044;-74
2023/04/08 13:22:32;;;;;;;22.73;13.57;;;;;;;;;;5057853;28;20048;-74
2023/04/08 13:25:00;;;;;;;22.35;12.98;;;;;;;;;;5058257;28;20427;-74
2023/04/08 13:27:27;;;;;;;20.35;12.75;;;;;;;;;;5086059;28;20048;-75
2023/04/08 13:29:55;;;;;;;21.67;12.50;;;;;;;;;;5064206;28;20048;-74
2023/04/08 13:32:22;;;;;;;21.85;13.60;;;;;;;;;;5064993;28;20495;-74
2023/04/08 13:34:49;;;;;;;26.02;13.77;;;;;;;;;;5060291;28;20059;-74
2023/04/08 13:37:17;;;;;;;21.70;12.57;;;;;;;;;;5079005;28;20060;-74
2023/04/08 13:39:45;;;;;;;25.75;12.90;;;;;;;;;;5085532;28;20036;-74
2023/04/08 13:42:13;;;;;;;21.45;12.32;;;;;;;;;;5064810;28;20063;-74
2023/04/08 13:44:40;;;;;;;21.05;13.05;;;;;;;;;;5070594;28;20060;-74
2023/04/08 13:47:07;;;;;;;23.17;12.70;;;;;;;;;;5069089;28;20139;-74
2023/04/08 13:49:34;;;;;;;22.30;12.38;;;;;;;;;;5070500;28;20143;-74
2023/04/08 13:52:02;;;;;;;20.80;12.68;;;;;;;;;;5064798;28;20049;-74
2023/04/08 13:54:29;;;;;;;21.02;11.85;;;;;;;;;;5069221;28;20048;-74
2023/04/08 13:56:58;;;;;;;20.48;11.20;;;;;;;;;;5064347;28;20491;-74
2023/04/08 13:59:25;;;;;;;18.42;11.52;;;;;;;;;;5060811;28;20048;-74
2023/04/08 14:01:54;;;;;;;21.42;10.85;;;;;;;;;;5067655;28;20052;-74
2023/04/08 14:04:21;;;;;;;19.65;12.10;;;;;;;;;;5069312;28;20048;-74
2023/04/08 14:06:50;;;;;;;17.40;10.85;;;;;;;;;;5067895;28;20040;-74
2023/04/08 14:09:17;;;;;;;18.42;10.55;;;;;;;;;;5069496;28;20048;-74
2023/04/08 14:11:45;;;;;;;18.67;9.35;;;;;;;;;;5067213;28;20060;-74
2023/04/08 14:14:14;;;;;;;16.98;9.30;;;;;;;;;;5068423;28;20063;-74
2023/04/08 14:16:41;;;;;;;16.75;9.98;;;;;;;;;;5069064;28;20064;-74
2023/04/08 14:19:09;;;;;;;15.43;9.30;;;;;;;;;;5069012;28;20052;-74
2023/04/08 14:21:37;;;;;;;18.00;9.63;;;;;;;;;;5066505;28;20048;-74
2023/04/08 14:24:05;;;;;;;14.13;9.10;;;;;;;;;;5070535;28;20490;-75
2023/04/08 14:26:34;;;;;;;13.82;8.35;;;;;;;;;;5060256;28;20049;-74
2023/04/08 14:29:03;;;;;;;11.48;7.90;;;;;;;;;;5065325;28;20047;-74